Time;durP1;ratioP1;P1;durP2;ratioP2;P2;SDS_P1;SDS_P2;PMS_P1;PMS_P2;Temp;Humidity;BMP_temperature;BMP_pressure;BME280_temperature;BME280_humidity;BME280_pressure;Samples;Min_cycle;Max_cycle;Signal;HPM_P1;HPM_P2
2022/05/04 00:01:12;;;;;;;;;;;;;;;;;;6206291;23;19946;-56
2022/05/04 00:03:39;;;;;;;;;;;;;;;;;;6206435;23;19900;-56
2022/05/04 00:06:05;;;;;;;;;;;;;;;;;;6205798;23;19983;-56
2022/05/04 00:08:31;;;;;;;;;;;;;;;;;;6206009;23;19985;-55
2022/05/04 00:10:57;;;;;;;;;;;;;;;;;;6205977;23;20304;-56
2022/05/04 00:13:23;;;;;;;;;;;;;;;;;;6206354;23;19900;-56
2022/05/04 00:15:48;;;;;;;;;;;;;;;;;;6207040;23;20076;-56
2022/05/04 00:18:14;;;;;;;;;;;;;;;;;;6205904;23;19954;-56
2022/05/04 00:20:41;;;;;;;;;;;;;;;;;;6206249;23;19908;-56
2022/05/04 00:23:07;;;;;;;;;;;;;;;;;;6205281;23;19899;-57
2022/05/04 00:25:33;;;;;;;;;;;;;;;;;;6206560;23;19954;-56
2022/05/04 00:28:00;;;;;;;;;;;;;;;;;;6205485;23;20522;-56
2022/05/04 00:30:26;;;;;;;;;;;;;;;;;;6206706;23;20348;-57
2022/05/04 00:32:52;;;;;;;;;;;;;;;;;;6205979;23;19903;-56
2022/05/04 00:35:18;;;;;;;;;;;;;;;;;;6206599;23;19954;-56
2022/05/04 00:37:44;;;;;;;;;;;;;;;;;;6205573;23;19900;-56
2022/05/04 00:40:10;;;;;;;;;;;;;;;;;;6205093;23;19927;-55
2022/05/04 00:42:36;;;;;;;;;;;;;;;;;;6205806;23;19935;-56
2022/05/04 00:45:02;;;;;;;;;;;;;;;;;;6205728;23;19907;-56
2022/05/04 00:47:28;;;;;;;;;;;;;;;;;;6206003;23;19947;-56
2022/05/04 00:49:55;;;;;;;;;;;;;;;;;;6205503;23;19999;-56
2022/05/04 00:52:21;;;;;;;;;;;;;;;;;;6205176;23;19900;-56
2022/05/04 00:54:47;;;;;;;;;;;;;;;;;;6206784;23;19914;-56
2022/05/04 00:57:13;;;;;;;;;;;;;;;;;;6205833;23;19910;-55
2022/05/04 00:59:39;;;;;;;;;;;;;;;;;;6206374;23;20298;-56
2022/05/04 01:02:05;;;;;;;;;;;;;;;;;;6205941;23;19906;-56
2022/05/04 01:04:31;;;;;;;;;;;;;;;;;;6205812;23;19900;-56
2022/05/04 01:06:56;;;;;;;;;;;;;;;;;;6204532;23;19916;-56
2022/05/04 01:09:22;;;;;;;;;;;;;;;;;;6206184;23;19906;-57
2022/05/04 01:11:48;;;;;;;;;;;;;;;;;;6206475;23;19900;-56
2022/05/04 01:14:14;;;;;;;;;;;;;;;;;;6205406;23;19903;-56
2022/05/04 01:16:40;;;;;;;;;;;;;;;;;;6205734;23;19904;-56
2022/05/04 01:19:06;;;;;;;;;;;;;;;;;;6204923;23;20256;-56
2022/05/04 01:21:32;;;;;;;;;;;;;;;;;;6205533;23;19928;-56
2022/05/04 01:23:58;;;;;;;;;;;;;;;;;;6205181;23;19906;-56
2022/05/04 01:26:24;;;;;;;;;;;;;;;;;;6205226;23;20344;-56
2022/05/04 01:28:50;;;;;;;;;;;;;;;;;;6206168;23;20268;-56
2022/05/04 01:31:15;;;;;;;;;;;;;;;;;;6205948;23;19907;-56
2022/05/04 01:33:41;;;;;;;;;;;;;;;;;;6205397;23;19950;-56
2022/05/04 01:36:07;;;;;;;;;;;;;;;;;;6205050;23;19926;-56
2022/05/04 01:38:33;;;;;;;;;;;;;;;;;;6205092;23;20260;-56
2022/05/04 01:40:59;;;;;;;;;;;;;;;;;;6204499;23;20074;-56
2022/05/04 01:43:26;;;;;;;;;;;;;;;;;;6179141;23;19899;-56
2022/05/04 01:45:52;;;;;;;;;;;;;;;;;;6205773;23;19961;-55
2022/05/04 01:48:17;;;;;;;;;;;;;;;;;;6206546;23;19978;-56
2022/05/04 01:50:43;;;;;;;;;;;;;;;;;;6205514;23;19904;-57
2022/05/04 01:53:09;;;;;;;;;;;;;;;;;;6205128;23;20507;-56
2022/05/04 01:55:35;;;;;;;;;;;;;;;;;;6205584;23;19908;-56
2022/05/04 01:58:01;;;;;;;;;;;;;;;;;;6205127;23;19962;-55
2022/05/04 02:00:27;;;;;;;;;;;;;;;;;;6205742;23;19904;-57
2022/05/04 02:02:53;;;;;;;;;;;;;;;;;;6206014;23;20313;-56
2022/05/04 02:05:19;;;;;;;;;;;;;;;;;;6208271;23;19900;-56
2022/05/04 02:07:45;;;;;;;;;;;;;;;;;;6206817;23;19939;-56
2022/05/04 02:10:10;;;;;;;;;;;;;;;;;;6206888;23;20741;-56
2022/05/04 02:12:36;;;;;;;;;;;;;;;;;;6207741;23;20208;-55
2022/05/04 02:15:03;;;;;;;;;;;;;;;;;;6206906;23;20183;-56
2022/05/04 02:17:29;;;;;;;;;;;;;;;;;;6207758;23;20218;-56
2022/05/04 02:19:54;;;;;;;;;;;;;;;;;;6207013;23;19904;-56
2022/05/04 02:22:20;;;;;;;;;;;;;;;;;;6208164;23;19908;-56
2022/05/04 02:24:46;;;;;;;;;;;;;;;;;;6208190;23;19927;-56
2022/05/04 02:27:12;;;;;;;;;;;;;;;;;;6206704;23;19915;-56
2022/05/04 02:29:39;;;;;;;;;;;;;;;;;;6207618;23;20135;-57
2022/05/04 02:32:05;;;;;;;;;;;;;;;;;;6206760;23;19907;-56
2022/05/04 02:34:31;;;;;;;;;;;;;;;;;;6207351;23;19990;-56
2022/05/04 02:39:41;;;;;;;;;;;;;;;;;;6206665;23;19919;-56
2022/05/04 02:42:10;;;;;;;;;;;;;;;;;;6206708;23;19911;-56
2022/05/04 02:44:36;;;;;;;;;;;;;;;;;;6207653;23;19907;-55
2022/05/04 02:47:02;;;;;;;;;;;;;;;;;;6206215;23;20296;-56
2022/05/04 02:49:28;;;;;;;;;;;;;;;;;;6207033;23;19915;-55
2022/05/04 02:51:55;;;;;;;;;;;;;;;;;;6206767;23;20185;-56
2022/05/04 02:54:22;;;;;;;;;;;;;;;;;;6206720;23;19910;-56
2022/05/04 02:56:48;;;;;;;;;;;;;;;;;;6207533;23;20354;-56
2022/05/04 02:59:14;;;;;;;;;;;;;;;;;;6206583;23;19900;-56
2022/05/04 03:04:24;;;;;;;;;;;;;;;;;;6206807;23;20304;-56
2022/05/04 03:06:50;;;;;;;;;;;;;;;;;;6207500;23;19916;-56
2022/05/04 03:09:16;;;;;;;;;;;;;;;;;;6206388;23;20338;-56
2022/05/04 03:11:57;;;;;;;;;;;;;;;;;;6206814;23;19900;-56
2022/05/04 03:14:24;;;;;;;;;;;;;;;;;;6206683;23;20253;-55
2022/05/04 03:16:51;;;;;;;;;;;;;;;;;;6207434;23;19908;-56
2022/05/04 03:19:16;;;;;;;;;;;;;;;;;;6207124;23;20396;-56
2022/05/04 03:21:43;;;;;;;;;;;;;;;;;;6207234;23;19904;-56
2022/05/04 03:24:09;;;;;;;;;;;;;;;;;;6206566;23;19900;-55
2022/05/04 03:26:35;;;;;;;;;;;;;;;;;;6205994;23;20249;-56
2022/05/04 03:29:02;;;;;;;;;;;;;;;;;;6206293;23;19904;-56
2022/05/04 03:31:29;;;;;;;;;;;;;;;;;;6206899;23;19904;-56
2022/05/04 03:33:55;;;;;;;;;;;;;;;;;;6206621;23;19906;-56
2022/05/04 03:36:21;;;;;;;;;;;;;;;;;;6207302;23;19983;-56
2022/05/04 03:38:47;;;;;;;;;;;;;;;;;;6207833;23;19920;-56
2022/05/04 03:41:13;;;;;;;;;;;;;;;;;;6206477;23;20484;-56
2022/05/04 03:43:38;;;;;;;;;;;;;;;;;;6207112;23;19904;-56
2022/05/04 03:46:04;;;;;;;;;;;;;;;;;;6206311;23;19943;-56
2022/05/04 03:48:30;;;;;;;;;;;;;;;;;;6206772;23;19990;-56
2022/05/04 03:50:56;;;;;;;;;;;;;;;;;;6206421;23;19910;-55
2022/05/04 03:53:23;;;;;;;;;;;;;;;;;;6206546;23;19903;-56
2022/05/04 03:55:50;;;;;;;;;;;;;;;;;;6207110;23;19904;-56
2022/05/04 03:58:16;;;;;;;;;;;;;;;;;;6206836;23;19912;-56
2022/05/04 04:00:41;;;;;;;;;;;;;;;;;;6206653;23;19903;-56
2022/05/04 04:03:07;;;;;;;;;;;;;;;;;;6206255;23;20251;-56
2022/05/04 04:05:34;;;;;;;;;;;;;;;;;;6206719;23;19904;-54
2022/05/04 04:08:00;;;;;;;;;;;;;;;;;;6205559;23;19983;-56
2022/05/04 04:10:26;;;;;;;;;;;;;;;;;;6206346;23;19985;-55
2022/05/04 04:12:53;;;;;;;;;;;;;;;;;;6206897;23;19900;-56
2022/05/04 04:15:19;;;;;;;;;;;;;;;;;;6207247;23;19954;-55
2022/05/04 04:17:47;;;;;;;;;;;;;;;;;;6205798;23;19900;-56
2022/05/04 04:22:57;;;;;;;;;;;;;;;;;;6206379;23;19989;-56
2022/05/04 04:25:23;;;;;;;;;;;;;;;;;;6206225;23;19931;-54
2022/05/04 04:27:49;;;;;;;;;;;;;;;;;;6207123;23;19987;-55
2022/05/04 04:30:15;;;;;;;;;;;;;;;;;;6206226;23;19953;-56
2022/05/04 04:32:42;;;;;;;;;;;;;;;;;;6205992;23;20349;-56
2022/05/04 04:35:09;;;;;;;;;;;;;;;;;;6206211;23;20271;-55
2022/05/04 04:37:35;;;;;;;;;;;;;;;;;;6205539;23;19907;-55
2022/05/04 04:40:01;;;;;;;;;;;;;;;;;;6205138;23;19904;-55
2022/05/04 04:42:28;;;;;;;;;;;;;;;;;;6206195;23;20009;-55
2022/05/04 04:44:54;;;;;;;;;;;;;;;;;;6205868;23;20292;-55
2022/05/04 04:47:20;;;;;;;;;;;;;;;;;;6206928;23;19903;-56
2022/05/04 04:49:46;;;;;;;;;;;;;;;;;;6205686;23;19904;-55
2022/05/04 04:52:12;;;;;;;;;;;;;;;;;;6206295;23;19900;-56
2022/05/04 04:54:38;;;;;;;;;;;;;;;;;;6204951;23;19914;-56
2022/05/04 04:57:04;;;;;;;;;;;;;;;;;;6205712;23;20337;-55
2022/05/04 04:59:30;;;;;;;;;;;;;;;;;;6206168;23;19986;-55
2022/05/04 05:01:55;;;;;;;;;;;;;;;;;;6205667;23;20355;-56
2022/05/04 05:04:21;;;;;;;;;;;;;;;;;;6206061;23;19910;-56
2022/05/04 05:06:47;;;;;;;;;;;;;;;;;;6205967;23;19966;-56
2022/05/04 05:09:13;;;;;;;;;;;;;;;;;;6205620;23;19930;-55
2022/05/04 05:11:40;;;;;;;;;;;;;;;;;;6205824;23;19954;-56
2022/05/04 05:16:50;;;;;;;;;;;;;;;;;;6206151;23;19952;-55
2022/05/04 05:19:16;;;;;;;;;;;;;;;;;;6206394;23;19908;-55
2022/05/04 05:21:42;;;;;;;;;;;;;;;;;;6206069;23;19935;-56
2022/05/04 05:24:08;;;;;;;;;;;;;;;;;;6205253;23;19903;-55
2022/05/04 05:26:34;;;;;;;;;;;;;;;;;;6205800;23;19904;-56
2022/05/04 05:29:00;;;;;;;;;;;;;;;;;;6205046;23;20356;-56
2022/05/04 05:31:26;;;;;;;;;;;;;;;;;;6206277;23;19982;-56
2022/05/04 05:33:53;;;;;;;;;;;;;;;;;;6206216;23;20225;-56
2022/05/04 05:36:19;;;;;;;;;;;;;;;;;;6205845;23;19904;-56
2022/05/04 05:38:45;;;;;;;;;;;;;;;;;;6205891;23;19928;-55
2022/05/04 05:41:11;;;;;;;;;;;;;;;;;;6205652;23;19911;-55
2022/05/04 05:43:37;;;;;;;;;;;;;;;;;;6205472;23;19900;-54
2022/05/04 05:46:04;;;;;;;;;;;;;;;;;;6205748;23;19999;-56
2022/05/04 05:48:30;;;;;;;;;;;;;;;;;;6205632;23;20218;-56
2022/05/04 05:50:56;;;;;;;;;;;;;;;;;;6205435;23;19910;-55
2022/05/04 05:53:23;;;;;;;;;;;;;;;;;;6205811;23;19899;-54
2022/05/04 05:55:49;;;;;;;;;;;;;;;;;;6205488;23;20003;-55
2022/05/04 05:58:14;;;;;;;;;;;;;;;;;;6206306;23;19908;-55
2022/05/04 06:00:40;;;;;;;;;;;;;;;;;;6205622;23;20618;-55
2022/05/04 06:03:07;;;;;;;;;;;;;;;;;;6204819;23;19908;-56
2022/05/04 06:05:33;;;;;;;;;;;;;;;;;;6206810;23;19907;-56
2022/05/04 06:07:59;;;;;;;;;;;;;;;;;;6206456;23;20002;-57
2022/05/04 06:10:25;;;;;;;;;;;;;;;;;;6205856;23;19911;-57
2022/05/04 06:12:51;;;;;;;;;;;;;;;;;;6207737;23;20576;-57
2022/05/04 06:15:17;;;;;;;;;;;;;;;;;;6207644;23;19911;-57
2022/05/04 06:17:46;;;;;;;;;;;;;;;;;;6207967;23;19900;-56
2022/05/04 06:20:12;;;;;;;;;;;;;;;;;;6206907;23;19900;-57
2022/05/04 06:22:38;;;;;;;;;;;;;;;;;;6207197;23;20580;-55
2022/05/04 06:25:04;;;;;;;;;;;;;;;;;;6206940;23;19900;-56
2022/05/04 06:27:30;;;;;;;;;;;;;;;;;;6207697;23;19931;-56
2022/05/04 06:35:26;;;;;;;;;;;;;;;;;;6207400;23;19915;-57
2022/05/04 06:37:52;;;;;;;;;;;;;;;;;;6206782;23;19904;-57
2022/05/04 06:40:18;;;;;;;;;;;;;;;;;;6207566;23;19931;-56
2022/05/04 06:42:44;;;;;;;;;;;;;;;;;;6208349;23;20413;-56
2022/05/04 06:45:10;;;;;;;;;;;;;;;;;;6206593;23;19905;-57
2022/05/04 06:47:36;;;;;;;;;;;;;;;;;;6207445;23;20286;-56
2022/05/04 06:50:03;;;;;;;;;;;;;;;;;;6208926;23;20261;-55
2022/05/04 06:52:29;;;;;;;;;;;;;;;;;;6208747;23;19908;-56
2022/05/04 06:54:55;;;;;;;;;;;;;;;;;;6207382;23;19903;-54
2022/05/04 06:57:21;;;;;;;;;;;;;;;;;;6207776;23;20230;-55
2022/05/04 06:59:47;;;;;;;;;;;;;;;;;;6209165;23;19900;-56
2022/05/04 07:02:14;;;;;;;;;;;;;;;;;;6209823;23;19904;-57
2022/05/04 07:04:39;;;;;;;;;;;;;;;;;;6209261;23;19903;-57
2022/05/04 07:07:06;;;;;;;;;;;;;;;;;;6208593;23;19990;-57
2022/05/04 07:09:33;;;;;;;;;;;;;;;;;;6208827;23;19903;-56
2022/05/04 07:11:59;;;;;;;;;;;;;;;;;;6208734;23;19900;-57
2022/05/04 07:14:25;;;;;;;;;;;;;;;;;;6182300;23;20291;-57
2022/05/04 07:16:51;;;;;;;;;;;;;;;;;;6209133;23;19927;-57
2022/05/04 07:19:17;;;;;;;;;;;;;;;;;;6209751;23;19900;-57
2022/05/04 07:21:43;;;;;;;;;;;;;;;;;;6209572;23;19900;-56
2022/05/04 07:24:09;;;;;;;;;;;;;;;;;;6207782;23;19970;-57
2022/05/04 07:26:35;;;;;;;;;;;;;;;;;;6208730;23;19950;-56
2022/05/04 07:29:01;;;;;;;;;;;;;;;;;;6208510;23;19904;-57
2022/05/04 07:31:27;;;;;;;;;;;;;;;;;;6209108;23;19949;-56
2022/05/04 07:33:53;;;;;;;;;;;;;;;;;;6208576;23;19907;-57
2022/05/04 07:36:19;;;;;;;;;;;;;;;;;;6208620;23;19900;-57
2022/05/04 07:38:45;;;;;;;;;;;;;;;;;;6209183;23;19910;-56
2022/05/04 07:43:56;;;;;;;;;;;;;;;;;;6206652;23;19952;-56
2022/05/04 07:46:22;;;;;;;;;;;;;;;;;;6207200;23;20227;-56
2022/05/04 07:48:48;;;;;;;;;;;;;;;;;;6207065;23;19927;-56
2022/05/04 07:51:14;;;;;;;;;;;;;;;;;;6207331;23;19903;-56
2022/05/04 07:53:40;;;;;;;;;;;;;;;;;;6206637;23;19954;-56
2022/05/04 07:56:06;;;;;;;;;;;;;;;;;;6206201;23;20334;-55
2022/05/04 07:58:32;;;;;;;;;;;;;;;;;;6206403;23;19908;-55
2022/05/04 08:06:27;;;;;;;;;;;;;;;;;;6206346;23;19957;-55
2022/05/04 08:08:53;;;;;;;;;;;;;;;;;;6205812;23;19900;-55
2022/05/04 08:11:19;;;;;;;;;;;;;;;;;;6179831;23;19971;-55
2022/05/04 08:13:46;;;;;;;;;;;;;;;;;;6207320;23;20324;-55
2022/05/04 08:16:13;;;;;;;;;;;;;;;;;;6206202;23;19908;-56
2022/05/04 08:18:42;;;;;;;;;;;;;;;;;;6206421;23;19904;-55
2022/05/04 08:21:08;;;;;;;;;;;;;;;;;;6206089;23;19991;-56
2022/05/04 08:23:34;;;;;;;;;;;;;;;;;;6206454;23;19900;-56
2022/05/04 08:26:01;;;;;;;;;;;;;;;;;;6206161;23;19900;-55
2022/05/04 08:28:26;;;;;;;;;;;;;;;;;;6206269;23;19907;-56
2022/05/04 08:30:52;;;;;;;;;;;;;;;;;;6206124;23;19900;-56
2022/05/04 08:33:18;;;;;;;;;;;;;;;;;;6206381;23;19907;-56
2022/05/04 08:35:45;;;;;;;;;;;;;;;;;;6206813;23;19904;-57
2022/05/04 08:38:12;;;;;;;;;;;;;;;;;;6206035;23;19970;-56
2022/05/04 08:40:38;;;;;;;;;;;;;;;;;;6206346;23;20611;-56
2022/05/04 08:43:05;;;;;;;;;;;;;;;;;;6205880;23;19903;-55
2022/05/04 08:45:31;;;;;;;;;;;;;;;;;;6206607;23;20260;-56
2022/05/04 08:48:00;;;;;;;;;;;;;;;;;;6205694;23;19978;-56
2022/05/04 08:50:26;;;;;;;;;;;;;;;;;;6206140;23;20372;-55
2022/05/04 08:52:53;;;;;;;;;;;;;;;;;;6205896;23;19907;-56
2022/05/04 08:55:19;;;;;;;;;;;;;;;;;;6206144;23;19981;-55
2022/05/04 08:57:45;;;;;;;;;;;;;;;;;;6206678;23;20276;-56
2022/05/04 09:00:12;;;;;;;;;;;;;;;;;;6206102;23;19903;-56
2022/05/04 09:02:38;;;;;;;;;;;;;;;;;;6206143;23;19904;-56
2022/05/04 09:05:04;;;;;;;;;;;;;;;;;;6205694;23;19907;-55
2022/05/04 09:07:30;;;;;;;;;;;;;;;;;;6205622;23;19912;-56
2022/05/04 09:09:56;;;;;;;;;;;;;;;;;;6205717;23;19935;-56
2022/05/04 09:12:22;;;;;;;;;;;;;;;;;;6205725;23;20337;-56
2022/05/04 09:14:49;;;;;;;;;;;;;;;;;;6206846;23;19910;-56
2022/05/04 09:17:15;;;;;;;;;;;;;;;;;;6206599;23;20377;-56
2022/05/04 09:19:40;;;;;;;;;;;;;;;;;;6206377;23;19935;-55
2022/05/04 09:22:07;;;;;;;;;;;;;;;;;;6205683;23;20018;-56
2022/05/04 09:24:33;;;;;;;;;;;;;;;;;;6205816;23;20063;-55
2022/05/04 09:27:01;;;;;;;;;;;;;;;;;;6205495;23;19899;-55
2022/05/04 09:29:26;;;;;;;;;;;;;;;;;;6206046;23;19908;-56
2022/05/04 09:31:53;;;;;;;;;;;;;;;;;;6206060;23;19904;-56
2022/05/04 09:34:21;;;;;;;;;;;;;;;;;;6205962;23;20337;-55
2022/05/04 09:45:01;;;;;;;;;;;;;;;;;;6207107;23;20396;-55
2022/05/04 09:47:28;;;;;;;;;;;;;;;;;;6206887;23;19903;-55
2022/05/04 09:49:53;;;;;;;;;;;;;;;;;;6205029;23;19904;-55
2022/05/04 09:52:19;;;;;;;;;;;;;;;;;;6205454;23;19907;-57
2022/05/04 09:54:45;;;;;;;;;;;;;;;;;;6206449;23;20301;-57
2022/05/04 09:57:12;;;;;;;;;;;;;;;;;;6205396;23;19911;-56
2022/05/04 09:59:38;;;;;;;;;;;;;;;;;;6205972;23;19900;-56
2022/05/04 10:02:04;;;;;;;;;;;;;;;;;;6205161;23;20317;-57
2022/05/04 10:04:32;;;;;;;;;;;;;;;;;;6205598;23;20384;-55
2022/05/04 10:06:57;;;;;;;;;;;;;;;;;;6205043;23;20389;-56
2022/05/04 10:09:23;;;;;;;;;;;;;;;;;;6206393;23;19904;-56
2022/05/04 10:11:57;;;;;;;;;;;;;;;;;;6205864;23;19904;-56
2022/05/04 10:14:23;;;;;;;;;;;;;;;;;;6205481;23;19986;-53
2022/05/04 10:16:48;;;;;;;;;;;;;;;;;;6205403;23;20334;-54
2022/05/04 10:19:14;;;;;;;;;;;;;;;;;;6205718;23;19906;-55
2022/05/04 10:21:40;;;;;;;;;;;;;;;;;;6205559;23;20269;-56
2022/05/04 10:24:07;;;;;;;;;;;;;;;;;;6206520;23;20345;-56
2022/05/04 10:26:33;;;;;;;;;;;;;;;;;;6207786;23;19907;-53
2022/05/04 10:31:44;;;;;;;;;;;;;;;;;;6208226;23;19961;-53
2022/05/04 10:34:10;;;;;;;;;;;;;;;;;;6207091;23;19900;-56
2022/05/04 10:36:36;;;;;;;;;;;;;;;;;;6207521;23;19950;-54
2022/05/04 10:39:04;;;;;;;;;;;;;;;;;;6207031;23;19904;-54
2022/05/04 10:41:30;;;;;;;;;;;;;;;;;;6207333;23;20063;-54
2022/05/04 10:43:57;;;;;;;;;;;;;;;;;;6206811;23;19903;-54
2022/05/04 10:46:24;;;;;;;;;;;;;;;;;;6207514;23;19911;-54
2022/05/04 10:48:50;;;;;;;;;;;;;;;;;;6205543;23;19904;-54
2022/05/04 10:51:19;;;;;;;;;;;;;;;;;;6206736;23;20369;-54
2022/05/04 10:53:45;;;;;;;;;;;;;;;;;;6206517;23;19919;-55
2022/05/04 10:56:12;;;;;;;;;;;;;;;;;;6206825;23;19907;-54
2022/05/04 10:58:38;;;;;;;;;;;;;;;;;;6207364;23;20026;-55
2022/05/04 11:01:04;;;;;;;;;;;;;;;;;;6207070;23;19947;-55
2022/05/04 11:03:30;;;;;;;;;;;;;;;;;;6208793;23;19904;-55
2022/05/04 11:05:56;;;;;;;;;;;;;;;;;;6208369;23;19970;-55
2022/05/04 11:08:21;;;;;;;;;;;;;;;;;;6204703;23;19900;-54
2022/05/04 11:10:48;;;;;;;;;;;;;;;;;;6206094;23;19927;-54
2022/05/04 11:13:13;;;;;;;;;;;;;;;;;;6206567;23;19903;-55
2022/05/04 11:15:39;;;;;;;;;;;;;;;;;;6206935;23;19904;-54
2022/05/04 11:18:05;;;;;;;;;;;;;;;;;;6206557;23;20505;-55
2022/05/04 11:20:31;;;;;;;;;;;;;;;;;;6207131;23;19900;-55
2022/05/04 11:22:57;;;;;;;;;;;;;;;;;;6206655;23;19904;-55
2022/05/04 11:25:23;;;;;;;;;;;;;;;;;;6207662;23;19900;-55
2022/05/04 11:27:49;;;;;;;;;;;;;;;;;;6207569;23;19931;-54
2022/05/04 11:30:15;;;;;;;;;;;;;;;;;;6206706;23;19978;-54
2022/05/04 11:32:41;;;;;;;;;;;;;;;;;;6206814;23;19906;-54
2022/05/04 11:35:07;;;;;;;;;;;;;;;;;;6206416;23;20272;-55
2022/05/04 11:37:33;;;;;;;;;;;;;;;;;;6207396;23;19926;-54
2022/05/04 11:39:59;;;;;;;;;;;;;;;;;;6206811;23;19947;-55
2022/05/04 11:42:26;;;;;;;;;;;;;;;;;;6208462;23;20141;-55
2022/05/04 11:44:54;;;;;;;;;;;;;;;;;;6209038;23;20287;-54
2022/05/04 11:47:21;;;;;;;;;;;;;;;;;;6208753;23;20260;-54
2022/05/04 11:49:47;;;;;;;;;;;;;;;;;;6207866;23;19931;-54
2022/05/04 11:52:14;;;;;;;;;;;;;;;;;;6207092;23;19911;-54
2022/05/04 11:54:40;;;;;;;;;;;;;;;;;;6208033;23;19944;-55
2022/05/04 11:57:06;;;;;;;;;;;;;;;;;;6208218;23;19978;-55
2022/05/04 11:59:32;;;;;;;;;;;;;;;;;;6207987;23;19911;-55
2022/05/04 12:01:58;;;;;;;;;;;;;;;;;;6207909;23;20250;-55
2022/05/04 12:04:25;;;;;;;;;;;;;;;;;;6209573;23;19900;-55
2022/05/04 12:06:51;;;;;;;;;;;;;;;;;;6209732;23;20322;-55
2022/05/04 12:09:18;;;;;;;;;;;;;;;;;;6209127;23;19910;-55
2022/05/04 12:11:44;;;;;;;;;;;;;;;;;;6209728;23;19910;-55
2022/05/04 12:14:10;;;;;;;;;;;;;;;;;;6209008;23;19927;-55
2022/05/04 12:16:37;;;;;;;;;;;;;;;;;;6209466;23;19904;-54
2022/05/04 12:19:03;;;;;;;;;;;;;;;;;;6208444;23;20337;-55
2022/05/04 12:21:29;;;;;;;;;;;;;;;;;;6208832;23;19906;-55
2022/05/04 12:23:54;;;;;;;;;;;;;;;;;;6208008;23;19899;-55
2022/05/04 12:26:20;;;;;;;;;;;;;;;;;;6208614;23;20253;-54
2022/05/04 12:34:17;;;;;;;;;;;;;;;;;;6206905;23;19950;-54
2022/05/04 12:36:43;;;;;;;;;;;;;;;;;;6207817;23;19904;-55
2022/05/04 12:39:09;;;;;;;;;;;;;;;;;;6206612;23;19906;-55
2022/05/04 12:41:35;;;;;;;;;;;;;;;;;;6207530;23;20388;-54
2022/05/04 12:44:01;;;;;;;;;;;;;;;;;;6207390;23;19927;-55
2022/05/04 12:46:27;;;;;;;;;;;;;;;;;;6206963;23;19910;-55
2022/05/04 12:48:53;;;;;;;;;;;;;;;;;;6208026;23;19904;-55
2022/05/04 12:51:19;;;;;;;;;;;;;;;;;;6207507;23;19907;-55
2022/05/04 12:53:45;;;;;;;;;;;;;;;;;;6207716;23;20233;-54
2022/05/04 12:58:56;;;;;;;;;;;;;;;;;;6207420;23;20328;-55
2022/05/04 13:01:22;;;;;;;;;;;;;;;;;;6208935;23;19904;-56
2022/05/04 13:03:49;;;;;;;;;;;;;;;;;;6209016;23;19954;-55
2022/05/04 13:06:15;;;;;;;;;;;;;;;;;;6208322;23;19908;-55
2022/05/04 13:08:41;;;;;;;;;;;;;;;;;;6207876;23;19988;-55
2022/05/04 13:11:07;;;;;;;;;;;;;;;;;;6208233;23;19970;-54
2022/05/04 13:13:33;;;;;;;;;;;;;;;;;;6208083;23;19904;-55
2022/05/04 13:16:00;;;;;;;;;;;;;;;;;;6205481;23;20360;-54
2022/05/04 13:18:26;;;;;;;;;;;;;;;;;;6205849;23;19904;-55
2022/05/04 13:20:52;;;;;;;;;;;;;;;;;;6206120;23;19950;-54
2022/05/04 13:23:18;;;;;;;;;;;;;;;;;;6206771;23;19904;-54
2022/05/04 13:25:44;;;;;;;;;;;;;;;;;;6206118;23;19935;-53
2022/05/04 13:28:10;;;;;;;;;;;;;;;;;;6205763;23;20042;-55
2022/05/04 13:30:36;;;;;;;;;;;;;;;;;;6207138;23;19904;-55
2022/05/04 13:33:02;;;;;;;;;;;;;;;;;;6207076;23;20089;-54
2022/05/04 13:35:30;;;;;;;;;;;;;;;;;;6206036;23;19970;-54
2022/05/04 13:37:56;;;;;;;;;;;;;;;;;;6205494;23;19903;-54
2022/05/04 13:40:22;;;;;;;;;;;;;;;;;;6205948;23;20306;-54
2022/05/04 13:42:48;;;;;;;;;;;;;;;;;;6206382;23;19903;-53
2022/05/04 13:45:14;;;;;;;;;;;;;;;;;;6205624;23;19907;-53
2022/05/04 13:47:40;;;;;;;;;;;;;;;;;;6205928;23;19900;-53
2022/05/04 13:53:14;;;;;;;;;;;;;;;;;;6206121;23;19904;-54
2022/05/04 13:55:37;;;;;;;;;;;;;;;;;;6205592;23;20251;-55
2022/05/04 13:58:03;;;;;;;;;;;;;;;;;;6207632;23;19990;-52
2022/05/04 14:00:30;;;;;;;;;;;;;;;;;;6207866;23;19907;-55
2022/05/04 14:02:56;;;;;;;;;;;;;;;;;;6207260;23;19982;-53
2022/05/04 14:05:22;;;;;;;;;;;;;;;;;;6207838;23;19982;-54
2022/05/04 14:07:48;;;;;;;;;;;;;;;;;;6207587;23;20423;-52
2022/05/04 14:10:14;;;;;;;;;;;;;;;;;;6207254;23;19900;-55
2022/05/04 14:12:42;;;;;;;;;;;;;;;;;;6207647;23;20316;-53
2022/05/04 14:15:09;;;;;;;;;;;;;;;;;;6207583;23;19908;-55
2022/05/04 14:17:36;;;;;;;;;;;;;;;;;;6208156;23;20357;-54
2022/05/04 14:20:02;;;;;;;;;;;;;;;;;;6207586;23;19900;-54
2022/05/04 14:22:27;;;;;;;;;;;;;;;;;;6207857;23;20257;-54
2022/05/04 14:24:54;;;;;;;;;;;;;;;;;;6207189;23;19904;-56
2022/05/04 14:27:20;;;;;;;;;;;;;;;;;;6207257;23;19907;-54
2022/05/04 14:29:46;;;;;;;;;;;;;;;;;;6207681;23;19903;-53
2022/05/04 14:32:12;;;;;;;;;;;;;;;;;;6207338;23;20309;-55
2022/05/04 14:34:38;;;;;;;;;;;;;;;;;;6207860;23;19907;-54
2022/05/04 14:37:05;;;;;;;;;;;;;;;;;;6207956;23;19926;-53
2022/05/04 14:39:31;;;;;;;;;;;;;;;;;;6207705;23;19900;-53
2022/05/04 14:41:57;;;;;;;;;;;;;;;;;;6207297;23;20390;-54
2022/05/04 14:44:24;;;;;;;;;;;;;;;;;;6205616;23;20655;-51
2022/05/04 14:46:51;;;;;;;;;;;;;;;;;;6208794;23;19908;-54
2022/05/04 14:49:17;;;;;;;;;;;;;;;;;;6206488;23;19903;-52
2022/05/04 14:51:43;;;;;;;;;;;;;;;;;;6207737;23;20136;-54
2022/05/04 14:54:08;;;;;;;;;;;;;;;;;;6206900;23;20345;-54
2022/05/04 14:56:35;;;;;;;;;;;;;;;;;;6207380;23;19899;-53
2022/05/04 14:59:01;;;;;;;;;;;;;;;;;;6206899;23;20509;-54
2022/05/04 15:01:27;;;;;;;;;;;;;;;;;;6207418;23;19900;-54
2022/05/04 15:06:38;;;;;;;;;;;;;;;;;;6206857;23;19915;-53
2022/05/04 15:09:04;;;;;;;;;;;;;;;;;;6206037;23;20137;-53
2022/05/04 15:11:31;;;;;;;;;;;;;;;;;;6207120;23;19900;-54
2022/05/04 15:13:57;;;;;;;;;;;;;;;;;;6206564;23;20333;-53
2022/05/04 15:16:24;;;;;;;;;;;;;;;;;;6206722;23;19994;-53
2022/05/04 15:18:50;;;;;;;;;;;;;;;;;;6207847;23;19934;-54
2022/05/04 15:21:19;;;;;;;;;;;;;;;;;;6206580;23;20326;-54
2022/05/04 15:23:46;;;;;;;;;;;;;;;;;;6206776;23;19900;-53
2022/05/04 15:26:12;;;;;;;;;;;;;;;;;;6206502;23;19907;-53
2022/05/04 15:28:38;;;;;;;;;;;;;;;;;;6206564;23;19904;-53
2022/05/04 15:31:04;;;;;;;;;;;;;;;;;;6206754;23;19926;-54
2022/05/04 15:33:30;;;;;;;;;;;;;;;;;;6206870;23;19903;-53
2022/05/04 15:35:56;;;;;;;;;;;;;;;;;;6207182;23;19910;-54
2022/05/04 15:38:22;;;;;;;;;;;;;;;;;;6208089;23;20248;-50
2022/05/04 15:40:49;;;;;;;;;;;;;;;;;;6208831;23;19900;-53
2022/05/04 15:43:15;;;;;;;;;;;;;;;;;;6207263;23;19907;-53
2022/05/04 15:45:41;;;;;;;;;;;;;;;;;;6208147;23;19904;-54
2022/05/04 15:48:07;;;;;;;;;;;;;;;;;;6207236;23;20349;-52
2022/05/04 15:50:33;;;;;;;;;;;;;;;;;;6207917;23;19900;-53
2022/05/04 15:52:59;;;;;;;;;;;;;;;;;;6207737;23;19991;-54
2022/05/04 15:55:25;;;;;;;;;;;;;;;;;;6207644;23;19930;-51
2022/05/04 15:57:50;;;;;;;;;;;;;;;;;;6208430;23;19900;-53
2022/05/04 16:00:16;;;;;;;;;;;;;;;;;;6208663;23;19900;-54
2022/05/04 16:05:27;;;;;;;;;;;;;;;;;;6204991;23;19914;-53
2022/05/04 16:07:53;;;;;;;;;;;;;;;;;;6205540;23;20293;-54
2022/05/04 16:10:19;;;;;;;;;;;;;;;;;;6207063;23;19910;-54
2022/05/04 16:12:45;;;;;;;;;;;;;;;;;;6206589;23;19903;-53
2022/05/04 16:15:11;;;;;;;;;;;;;;;;;;6207819;23;20359;-53
2022/05/04 16:23:07;;;;;;;;;;;;;;;;;;6207005;23;19926;-53
2022/05/04 16:25:33;;;;;;;;;;;;;;;;;;6207120;23;20248;-51
2022/05/04 16:27:59;;;;;;;;;;;;;;;;;;6207495;23;19936;-55
2022/05/04 16:30:25;;;;;;;;;;;;;;;;;;6206347;23;19908;-54
2022/05/04 16:32:52;;;;;;;;;;;;;;;;;;6203870;23;19900;-53
2022/05/04 16:35:19;;;;;;;;;;;;;;;;;;6206201;23;20348;-53
2022/05/04 16:37:45;;;;;;;;;;;;;;;;;;6204071;23;20400;-53
2022/05/04 16:40:13;;;;;;;;;;;;;;;;;;6204156;23;19927;-52
2022/05/04 16:42:41;;;;;;;;;;;;;;;;;;6202970;23;19907;-52
2022/05/04 16:45:07;;;;;;;;;;;;;;;;;;6205791;23;19907;-53
2022/05/04 16:47:33;;;;;;;;;;;;;;;;;;6205021;23;19900;-55
2022/05/04 16:49:59;;;;;;;;;;;;;;;;;;6204366;23;19903;-54
2022/05/04 16:52:33;;;;;;;;;;;;;;;;;;5100417;27;20383;-54
2022/05/04 16:54:59;;;;;;;;;;;;;;;;;;5102255;28;19922;-54
2022/05/04 16:57:25;;;;;;;;;;;;;;;;;;5095350;28;19912;-53
2022/05/04 16:59:52;;;;;;;;;;;;;;;;;;5098257;28;19927;-54
2022/05/04 17:02:19;;;;;;;;;;;;;;;;;;5101892;28;20432;-54
2022/05/04 17:04:46;;;;;;;;;;;;;;;;;;5101398;28;19912;-54
2022/05/04 17:07:12;;;;;;;;;;;;;;;;;;5100529;28;20023;-51
2022/05/04 17:09:39;;;;;;;;;;;;;;;;;;5097984;28;19934;-54
2022/05/04 17:12:05;;;;;;;;;;;;;;;;;;5102155;28;19920;-53
2022/05/04 17:14:32;;;;;;;;;;;;;;;;;;5102243;28;19912;-53
2022/05/04 17:16:58;;;;;;;;;;;;;;;;;;5098948;28;19935;-54
2022/05/04 17:19:24;;;;;;;;;;;;;;;;;;5098958;28;20438;-53
2022/05/04 17:21:50;;;;;;;;;;;;;;;;;;5098501;28;19958;-53
2022/05/04 17:24:15;;;;;;;;;;;;;;;;;;5101638;28;20294;-53
2022/05/04 17:26:42;;;;;;;;;;;;;;;;;;5101959;28;20011;-54
2022/05/04 17:29:09;;;;;;;;;;;;;;;;;;5101750;28;19977;-54
2022/05/04 17:31:36;;;;;;;;;;;;;;;;;;5093075;28;19920;-52
2022/05/04 17:36:47;;;;;;;;;;;;;;;;;;5100248;28;19935;-54
2022/05/04 17:39:14;;;;;;;;;;;;;;;;;;5099780;28;20430;-54